createdAt,value
2018-06-14T00:01:13.440Z,78.30
2018-06-14T00:05:16.935Z,79.40
2018-06-14T00:09:20.458Z,79.90
2018-06-14T00:13:23.973Z,80.10
2018-06-14T00:17:27.729Z,80.40
2018-06-14T00:21:31.271Z,80.90
2018-06-14T00:25:34.815Z,80.20
2018-06-14T00:29:38.430Z,80.80
2018-06-14T00:33:42.291Z,80.90
2018-06-14T00:37:45.794Z,81.00
2018-06-14T00:41:49.488Z,81.20
2018-06-14T00:45:53.002Z,80.10
2018-06-14T00:49:56.652Z,81.10
2018-06-14T00:54:00.158Z,80.70
2018-06-14T00:58:09.131Z,79.10
2018-06-14T01:02:12.758Z,79.90
2018-06-14T01:06:16.291Z,79.30
2018-06-14T01:10:19.872Z,79.30
2018-06-14T01:14:23.563Z,80.30
2018-06-14T01:18:27.254Z,80.20
2018-06-14T01:22:30.943Z,79.50
2018-06-14T01:26:34.482Z,79.70
2018-06-14T01:30:38.220Z,80.00
2018-06-14T01:34:43.081Z,79.30
2018-06-14T01:38:46.715Z,79.40
2018-06-14T01:42:50.207Z,80.20
2018-06-14T01:46:54.043Z,79.80
2018-06-14T01:50:57.818Z,79.40
2018-06-14T01:55:02.513Z,80.30
2018-06-14T01:59:06.613Z,81.60
2018-06-14T02:03:10.446Z,81.60
2018-06-14T02:07:14.081Z,81.10
2018-06-14T02:11:17.983Z,80.80
2018-06-14T02:15:21.534Z,80.50
2018-06-14T02:19:25.297Z,80.10
2018-06-14T02:23:29.168Z,80.20
2018-06-14T02:27:32.824Z,80.60
2018-06-14T02:31:36.412Z,81.20
2018-06-14T02:35:40.523Z,80.00
2018-06-14T02:39:44.187Z,80.50
2018-06-14T02:43:47.757Z,81.30
2018-06-14T02:47:51.251Z,81.10
2018-06-14T02:51:54.819Z,80.90
2018-06-14T02:56:08.257Z,81.60
2018-06-14T03:00:12.593Z,81.80
2018-06-14T03:04:16.110Z,81.80
2018-06-14T03:08:19.711Z,81.30
2018-06-14T03:12:23.231Z,81.20
2018-06-14T03:16:27.089Z,81.00
2018-06-14T03:20:30.564Z,81.40
2018-06-14T03:24:34.358Z,81.40
2018-06-14T03:28:37.903Z,81.10
2018-06-14T03:32:51.894Z,81.30
2018-06-14T03:36:55.490Z,81.50
2018-06-14T03:40:59.255Z,81.80
2018-06-14T03:45:02.755Z,82.00
2018-06-14T03:49:06.610Z,81.70
2018-06-14T03:53:12.454Z,81.80
2018-06-14T03:57:16.730Z,81.70
2018-06-14T04:01:20.238Z,82.00
2018-06-14T04:05:24.006Z,80.70
2018-06-14T04:09:27.503Z,80.80
2018-06-14T04:13:31.296Z,80.40
2018-06-14T04:17:34.967Z,80.50
2018-06-14T04:21:38.557Z,81.60
2018-06-14T04:25:42.037Z,79.40
2018-06-14T04:29:45.970Z,79.50
2018-06-14T04:33:49.574Z,78.60
2018-06-14T04:37:59.373Z,78.90
2018-06-14T04:42:02.903Z,78.70
2018-06-14T04:46:06.707Z,79.30
2018-06-14T04:50:10.183Z,79.50
2018-06-14T04:54:13.879Z,80.60
2018-06-14T04:58:17.658Z,79.70
2018-06-14T05:02:32.180Z,81.80
2018-06-14T05:06:35.723Z,78.00
2018-06-14T05:10:39.266Z,79.50
2018-06-14T05:14:42.906Z,79.60
2018-06-14T05:18:46.908Z,80.20
2018-06-14T05:22:50.639Z,80.40
2018-06-14T05:26:54.183Z,80.60
2018-06-14T05:30:57.688Z,81.50
2018-06-14T05:35:01.638Z,81.40
2018-06-14T05:39:08.630Z,80.60
2018-06-14T05:47:15.577Z,80.00
2018-06-14T05:51:19.535Z,80.10
2018-06-14T05:55:23.231Z,79.00
2018-06-14T05:59:26.867Z,79.50
2018-06-14T06:03:31.538Z,78.40
2018-06-14T06:07:36.539Z,75.80
2018-06-14T06:11:40.471Z,75.80
2018-06-14T06:15:44.403Z,73.60
2018-06-14T06:19:48.194Z,73.20
2018-06-14T06:23:52.175Z,70.90
2018-06-14T06:27:55.835Z,68.10
2018-06-14T06:32:00.463Z,67.40
2018-06-14T06:40:07.574Z,65.90
2018-06-14T06:44:11.295Z,63.90
2018-06-14T06:48:15.217Z,61.40
2018-06-14T06:52:18.948Z,60.90
2018-06-14T06:56:23.055Z,58.80
2018-06-14T07:00:26.567Z,57.50
2018-06-14T07:04:32.578Z,58.10
2018-06-14T07:08:36.161Z,53.30
2018-06-14T07:12:39.916Z,49.40
2018-06-14T07:16:43.780Z,49.30
2018-06-14T07:20:47.554Z,49.90
2018-06-14T07:24:51.229Z,50.10
2018-06-14T07:28:55.987Z,49.80
2018-06-14T07:32:59.478Z,49.20
2018-06-14T07:37:04.779Z,48.80
2018-06-14T07:41:09.371Z,48.50
2018-06-14T07:45:13.595Z,47.00
2018-06-14T07:49:17.572Z,46.80
2018-06-14T07:53:23.095Z,46.50
2018-06-14T07:57:26.627Z,48.50
2018-06-14T08:01:31.787Z,46.00
2018-06-14T08:05:35.370Z,40.40
2018-06-14T08:09:39.278Z,44.10
2018-06-14T08:13:42.852Z,45.30
2018-06-14T08:17:46.895Z,42.60
2018-06-14T08:21:50.438Z,44.90
2018-06-14T08:25:54.054Z,41.80
2018-06-14T08:29:58.700Z,42.20
2018-06-14T08:34:02.617Z,45.80
2018-06-14T08:38:06.198Z,51.20
2018-06-14T08:42:10.718Z,49.80
2018-06-14T08:46:14.444Z,46.10
2018-06-14T08:50:18.105Z,41.00
2018-06-14T08:54:21.913Z,46.10
2018-06-14T08:58:25.618Z,43.20
2018-06-14T09:02:29.154Z,44.70
2018-06-14T09:10:37.119Z,46.50
2018-06-14T09:14:41.283Z,44.40
2018-06-14T09:18:45.100Z,41.70
2018-06-14T09:22:49.125Z,43.70
2018-06-14T09:26:52.664Z,45.00
2018-06-14T09:30:56.490Z,47.50
2018-06-14T09:35:10.731Z,44.90
2018-06-14T09:39:14.936Z,44.00
2018-06-14T09:43:18.821Z,42.40
2018-06-14T09:47:22.599Z,38.90
2018-06-14T09:51:26.091Z,45.90
2018-06-14T09:55:29.943Z,41.20
2018-06-14T09:59:33.430Z,44.10
2018-06-14T10:03:37.132Z,43.80
2018-06-14T10:07:40.810Z,42.30
2018-06-14T10:11:46.903Z,50.90
2018-06-14T10:15:51.142Z,48.40
2018-06-14T10:19:55.252Z,48.30
2018-06-14T10:23:58.750Z,52.10
2018-06-14T10:28:08.015Z,46.80
2018-06-14T10:32:11.730Z,49.30
2018-06-14T10:36:16.931Z,48.30
2018-06-14T10:40:22.563Z,45.40
2018-06-14T10:44:26.319Z,43.70
2018-06-14T10:48:29.891Z,43.80
2018-06-14T10:52:33.720Z,49.50
2018-06-14T10:56:37.684Z,49.20
2018-06-14T11:00:41.975Z,49.30
2018-06-14T11:04:45.970Z,45.80
2018-06-14T11:08:49.998Z,45.10
2018-06-14T11:12:54.178Z,49.00
2018-06-14T11:16:57.915Z,52.60
2018-06-14T11:21:01.558Z,46.50
2018-06-14T11:25:05.723Z,46.30
2018-06-14T11:33:13.929Z,45.70
2018-06-14T11:37:17.791Z,48.80
2018-06-14T11:41:21.574Z,51.20
2018-06-14T11:45:25.310Z,47.70
2018-06-14T11:49:30.033Z,55.30
2018-06-14T11:53:33.802Z,45.20
2018-06-14T11:57:37.702Z,45.90
2018-06-14T12:01:45.604Z,49.10
2018-06-14T12:05:50.247Z,53.00
2018-06-14T12:10:01.277Z,54.20
2018-06-14T12:14:05.137Z,55.40
2018-06-14T12:18:09.358Z,50.00
2018-06-14T12:22:14.643Z,47.40
2018-06-14T12:26:19.540Z,54.30
2018-06-14T12:30:23.753Z,47.90
2018-06-14T12:34:27.397Z,47.90
2018-06-14T12:38:30.982Z,49.80
2018-06-14T12:42:34.968Z,52.50
2018-06-14T12:46:38.819Z,50.90
2018-06-14T12:54:47.024Z,49.50
2018-06-14T12:58:51.172Z,53.30
2018-06-14T13:02:55.067Z,55.60
2018-06-14T13:06:58.639Z,50.20
2018-06-14T13:11:02.254Z,49.50
2018-06-14T13:15:07.061Z,54.20
2018-06-14T13:19:10.735Z,51.00
2018-06-14T13:23:14.836Z,50.50
2018-06-14T13:27:18.890Z,49.70
2018-06-14T13:31:23.055Z,57.80
2018-06-14T13:35:26.892Z,53.40
2018-06-14T13:39:30.414Z,49.90
2018-06-14T13:43:34.135Z,53.30
2018-06-14T13:47:38.702Z,51.30
2018-06-14T13:51:42.295Z,54.90
2018-06-14T13:55:47.016Z,52.50
2018-06-14T13:59:51.595Z,51.00
2018-06-14T14:03:55.087Z,56.20
2018-06-14T14:07:58.798Z,52.20
2018-06-14T14:12:02.328Z,52.50
2018-06-14T14:16:12.473Z,58.40
2018-06-14T14:20:17.161Z,54.50
2018-06-14T14:24:22.346Z,51.90
2018-06-14T14:28:27.992Z,55.40
2018-06-14T14:32:31.686Z,53.80
2018-06-14T14:36:35.172Z,54.30
2018-06-14T14:40:38.866Z,55.40
2018-06-14T14:44:42.516Z,53.90
2018-06-14T14:48:46.816Z,54.00
2018-06-14T14:52:50.318Z,55.00
2018-06-14T14:56:53.904Z,55.80
2018-06-14T15:00:59.450Z,59.30
2018-06-14T15:05:03.182Z,54.20
2018-06-14T15:09:10.426Z,54.50
2018-06-14T15:13:14.283Z,58.10
2018-06-14T15:17:18.011Z,55.40
2018-06-14T15:21:21.928Z,53.70
2018-06-14T15:25:25.494Z,54.00
2018-06-14T15:29:29.242Z,54.10
2018-06-14T15:33:32.959Z,54.40
2018-06-14T15:37:36.567Z,56.40
2018-06-14T15:41:40.080Z,54.70
2018-06-14T15:45:47.213Z,56.80
2018-06-14T15:50:04.114Z,57.60
2018-06-14T15:54:07.905Z,53.40
2018-06-14T15:58:12.740Z,53.10
2018-06-14T16:02:16.543Z,54.00
2018-06-14T16:06:21.094Z,54.50
2018-06-14T16:10:26.734Z,54.30
2018-06-14T16:14:30.319Z,60.80
2018-06-14T16:18:34.295Z,56.40
2018-06-14T16:22:37.815Z,57.70
2018-06-14T16:26:41.572Z,55.80
2018-06-14T16:30:45.421Z,55.50
2018-06-14T16:34:51.998Z,55.20
2018-06-14T16:38:55.590Z,54.70
2018-06-14T16:43:01.253Z,56.50
2018-06-14T16:47:04.793Z,56.60
2018-06-14T16:59:16.611Z,57.00
2018-06-14T17:03:20.821Z,57.00
2018-06-14T17:07:27.410Z,59.80
2018-06-14T17:11:31.043Z,55.40
2018-06-14T17:15:35.649Z,58.10
2018-06-14T17:19:39.261Z,57.70
2018-06-14T17:23:45.242Z,57.00
2018-06-14T17:27:49.881Z,57.00
2018-06-14T17:31:53.541Z,57.60
2018-06-14T17:35:57.132Z,58.70
2018-06-14T17:40:04.691Z,56.20
2018-06-14T17:44:17.755Z,57.70
2018-06-14T17:48:24.054Z,57.50
2018-06-14T17:52:27.802Z,57.70
2018-06-14T17:56:31.524Z,60.20
2018-06-14T18:00:35.111Z,58.90
2018-06-14T18:04:44.450Z,59.40
2018-06-14T18:08:50.007Z,61.40
2018-06-14T18:12:54.735Z,63.40
2018-06-14T18:16:59.310Z,66.40
2018-06-14T18:21:06.405Z,64.90
2018-06-14T18:29:15.054Z,67.60
2018-06-14T18:33:24.095Z,68.90
2018-06-14T18:37:29.847Z,69.30
2018-06-14T18:41:35.622Z,72.30
2018-06-14T18:45:42.696Z,73.70
2018-06-14T18:49:47.984Z,74.60
2018-06-14T18:58:02.393Z,74.90
2018-06-14T19:02:06.314Z,76.40
2018-06-14T19:06:09.869Z,76.50
2018-06-14T19:10:14.913Z,77.00
2018-06-14T19:14:18.758Z,77.20
2018-06-14T19:18:22.485Z,76.90
2018-06-14T19:22:25.978Z,77.20
2018-06-14T19:26:29.982Z,77.20
2018-06-14T19:30:34.522Z,77.70
2018-06-14T19:34:38.136Z,77.80
2018-06-14T19:38:45.734Z,78.30
2018-06-14T19:42:50.112Z,78.40
2018-06-14T19:46:53.985Z,80.20
2018-06-14T19:55:06.966Z,82.90
2018-06-14T19:59:10.506Z,82.20
2018-06-14T20:03:14.349Z,82.00
2018-06-14T20:07:18.174Z,82.00
2018-06-14T20:11:21.766Z,81.30
2018-06-14T20:15:25.622Z,81.30
2018-06-14T20:19:29.148Z,81.80
2018-06-14T20:23:33.012Z,82.50
2018-06-14T20:27:36.516Z,83.60
2018-06-14T20:31:40.059Z,82.60
2018-06-14T20:35:43.935Z,83.10
2018-06-14T20:39:50.215Z,83.10
2018-06-14T20:43:55.887Z,82.40
2018-06-14T20:52:03.089Z,82.60
2018-06-14T20:56:08.974Z,83.10
2018-06-14T21:00:13.572Z,83.50
2018-06-14T21:04:17.949Z,83.00
2018-06-14T21:08:21.886Z,82.40
2018-06-14T21:12:25.470Z,83.70
2018-06-14T21:16:29.031Z,83.60
2018-06-14T21:20:32.740Z,83.30
2018-06-14T21:24:36.306Z,83.90
2018-06-14T21:28:39.866Z,84.40
2018-06-14T21:32:44.219Z,84.80
2018-06-14T21:36:48.678Z,85.10
2018-06-14T21:40:52.279Z,85.20
2018-06-14T21:44:56.093Z,84.60
2018-06-14T21:48:59.648Z,86.10
2018-06-14T21:53:03.267Z,85.30
2018-06-14T21:57:07.058Z,85.60
2018-06-14T22:01:12.274Z,85.90
2018-06-14T22:05:17.318Z,86.20
2018-06-14T22:09:20.951Z,85.70
2018-06-14T22:17:28.294Z,86.00
2018-06-14T22:21:31.836Z,86.10
2018-06-14T22:25:35.876Z,85.90
2018-06-14T22:29:39.609Z,85.30
2018-06-14T22:33:54.227Z,85.70
2018-06-14T22:37:57.870Z,87.30
2018-06-14T22:42:01.523Z,86.30
2018-06-14T22:46:05.735Z,86.70
2018-06-14T22:50:09.383Z,86.70
2018-06-14T22:54:14.121Z,86.10
2018-06-14T22:58:18.126Z,86.80
2018-06-14T23:02:21.715Z,86.60
2018-06-14T23:06:25.315Z,86.20
2018-06-14T23:10:40.916Z,86.70
2018-06-14T23:14:45.812Z,85.90
2018-06-14T23:18:49.561Z,86.00
2018-06-14T23:22:54.525Z,85.80
2018-06-14T23:27:04.664Z,86.10
2018-06-14T23:31:08.435Z,86.70
2018-06-14T23:35:12.024Z,86.70
2018-06-14T23:39:16.450Z,86.80
2018-06-14T23:43:20.122Z,87.00
2018-06-14T23:47:23.826Z,86.90
2018-06-14T23:51:27.300Z,86.10
2018-06-14T23:55:30.954Z,86.30
2018-06-14T23:59:34.706Z,86.20
